Weather observations for the past three days for
Rhinelander, Rhinelander-Oneida County Airport
Imperial (Metric)
Date Time (cdt) Wind (mph) Vis. (mi.) Weather Sky Cond. Temperature (ºF) Relative Humidity Wind Chill (°F) Heat Index (°F) Pressure Precipitation (in)
Air Dwpt 6 hour altimeter (in) sea level (mb) 1 hr 3 hr 6 hr
Max. Min.
01 17:53 W 9 10.00 Fair CLR 82.9 57 41% 82 29.92 1012.6
01 16:53 W 12 10.00 Fair CLR 84.9 55.9 37% 84 29.92 1012.6
01 15:53 W 12 10.00 Fair CLR 88 57 35% 87 29.92 1012.1
01 14:53 W 12 G 21 10.00 Fair CLR 89.1 54 30% 87 29.93 1012.6
01 13:53 SW 12 G 20 10.00 Fair CLR 88 51.1 28% 85 29.95 1013.2
01 12:53 SW 12 10.00 Fair CLR 84.9 50 86 55.9 30% 83 29.96 1013.7
01 11:53 SW 9 10.00 Fair CLR 82.9 55.9 40% 82 29.98 1014.4
01 10:53 SW 6 10.00 Fair CLR 80.1 59 49% 81 30 1014.9
01 09:53 Vrbl 5 10.00 Fair CLR 77 63 62% 79 29.99 1014.8
01 08:53 Calm 10.00 Fair CLR 69.1 66 90% 29.99 1014.9
01 07:53 Calm 9.00 Fair CLR 63 63 100% 29.99 1014.9
01 06:53 Calm 0.15 Fog VV001 55.9 55.9 64 54 100% 29.99 1014.8
01 05:53 W 3 0.25 Fog VV001 55.9 55.9 100% 29.96 1013.8
01 04:53 Calm 0.25 Fog VV002 57 57 100% 29.96 1013.9
01 03:53 Calm 0.25 Fog VV002 61 61 100% 29.95 1013.6
01 02:53 Calm 0.25 Fog VV002 63 63 100% 29.96 1013.8
01 01:53 W 3 0.25 Fog VV002 62.1 62.1 100% 29.95 1013.6
01 00:50 Calm 1.00 Fog/Mist VV003 64.9 64.9 81 61 100% 29.95 1013.7
31 23:53 Calm 0.25 Fog VV002 63 63 100% 29.94 1013.2
31 22:53 Calm 0.25 Fog VV002 64.9 64.9 100% 29.94 1013.4
31 21:53 Calm 0.25 Fog VV002 69.1 69.1 100% 29.94 1013.3
31 20:53 Calm 7.00 A Few Clouds FEW110 72 71.1 97% 29.94 1013.1
31 19:53 Calm 10.00 A Few Clouds FEW026 75.9 73 91% 76 29.92 1012.3
31 18:53 N 3 10.00 Fair CLR 81 73 82.9 75 77% 86 29.9 1011.6
31 17:53 Calm 10.00 Fair CLR 82 72 72% 87 29.89 1011.4
31 16:53 SW 6 10.00 Partly Cloudy SCT024 82 71.1 69% 86 29.89 1011.2
31 15:53 Vrbl 7 10.00 A Few Clouds FEW022 81 70 69% 84 29.89 1011.1
31 14:53 SW 6 10.00 Partly Cloudy SCT017 79 70 74% 82 29.89 1011.3
31 13:53 SW 7 10.00 Overcast OVC015 79 70 74% 82 29.89 1011.2
31 12:53 S 7 10.00 Mostly Cloudy BKN014 75.9 69.1 77 68 79% 77 29.9 1011.8
31 11:53 Vrbl 3 10.00 Overcast OVC010 73.9 68 82% 29.91 1011.9
31 10:53 S 6 10.00 Overcast OVC008 72 66.9 84% 29.9 1011.9
31 09:53 SE 6 10.00 Overcast OVC007 70 66.9 90% 29.9 1011.7
31 08:53 SE 7 10.00 Overcast OVC006 69.1 66.9 93% 29.89 1011.4
31 07:53 SE 7 8.00 Overcast OVC006 68 66 93% 29.88 1011.4
31 06:53 S 5 7.00 Overcast OVC005 68 66 68 66.9 93% 29.89 1011.5
31 05:53 SE 7 8.00 Overcast OVC005 66.9 66 97% 29.89 1011.5
31 04:53 SE 8 7.00 Overcast OVC005 66.9 66 97% 29.9 1011.9
31 03:53 SE 10 7.00 Overcast OVC004 66.9 66 97% 29.9 1011.8
31 02:53 E 9 8.00 Overcast OVC005 66.9 66 97% 29.9 1012.0
31 01:53 E 7 8.00 Overcast OVC006 66.9 66 97% 29.93 1012.8
31 00:53 SE 7 8.00 Overcast OVC005 66.9 66 68 66.9 97% 29.95 1013.7
30 23:53 SE 7 7.00 Overcast OVC006 68 66 93% 29.96 1014.0
30 22:53 E 8 7.00 Overcast OVC004 68 66 93% 29.97 1014.1
30 21:53 SE 7 8.00 Overcast OVC005 68 66 93% 29.96 1014.2
30 20:53 SE 7 7.00 Overcast OVC005 68 66 93% 29.96 1014.0
30 19:53 E 8 7.00 Overcast OVC005 68 66 93% 29.95 1013.6
30 18:53 E 7 5.00 Fog/Mist OVC005 68 66 70 68 93% 29.95 1013.9
30 17:53 E 9 6.00 Fog/Mist OVC006 68 66 93% 29.94 1013.4
30 16:53 E 8 9.00 Overcast OVC009 69.1 66 90% 29.94 1013.3
30 15:53 E 8 10.00 Overcast OVC011 70 64.9 84% 29.94 1013.4
30 14:53 E 7 10.00 Overcast OVC013 70 64.9 84% 29.95 1013.8
30 13:53 E 6 10.00 Overcast OVC010 70 64.9 84% 29.96 1013.9
30 12:53 E 10 10.00 Overcast OVC010 69.1 64.9 70 63 87% 29.95 1013.6 0.01
30 11:53 E 8 10.00 Overcast OVC012 69.1 64.9 87% 29.94 1013.4
30 10:53 E 7 10.00 Overcast OVC011 69.1 64.9 87% 29.95 1013.6
30 09:53 E 7 10.00 Overcast OVC007 68 64.9 90% 29.94 1013.6 0.01
30 08:53 E 7 4.00 Fog/Mist OVC004 64.9 64 97% 29.93 1013.4
30 07:53 E 5 1.75 Fog/Mist OVC002 64 63 96% 29.95 1013.8 0.01
30 06:53 E 6 2.00 Fog/Mist OVC002 63 63 63 63 100% 29.94 1013.6
30 05:53 E 5 3.00 Fog/Mist OVC002 63 63 100% 29.92 1013.1
30 04:53 E 3 3.00 Fog/Mist OVC002 63 63 100% 29.93 1013.2
30 03:53 E 5 3.00 Fog/Mist OVC003 63 63 100% 29.93 1013.4
30 02:53 E 3 3.00 Fog/Mist OVC003 63 63 100% 29.93 1013.3
30 01:53 Calm 4.00 Fog/Mist OVC003 63 62.1 97% 29.95 1014.0
30 00:53 E 3 4.00 Fog/Mist OVC004 63 62.1 63 62.1 97% 29.96 1014.3 0.01 0.04
29 23:53 E 3 2.50 Light Rain Fog/Mist OVC004 63 62.1 97% 29.97 1014.7 0.02
29 22:53 SE 3 4.00 Fog/Mist OVC007 63 62.1 97% 29.98 1015.0
29 21:53 SE 3 7.00 Overcast BKN009 OVC013 63 62.1 97% 29.98 1015.0 0.01 0.01
29 20:53 SE 5 7.00 Overcast FEW005 OVC010 63 61 93% 29.98 1015.0
29 19:53 SE 5 4.00 Fog/Mist BKN016 OVC020 62.1 61 96% 29.98 1015.0
29 18:53 SE 5 10.00 Overcast SCT014 BKN019 OVC024 63 61 64.9 61 93% 29.98 1015.0 0.06
Date Time (cdt) Wind (mph) Vis. (mi.) Weather Sky Cond. Air Dwpt Max. Min. Relative Humidity Wind Chill (°F) Heat Index (°F) altimeter (in) sea level (mb) 1 hr 3 hr 6 hr
6 hour
Temperature (ºF) Pressure Precipitation (in)